sensor_id;sensor_type;location;lat;lon;timestamp;P1;durP1;ratioP1;P2;durP2;ratioP2
59147;SDS011;44930;52.878;6.168;2022-12-04T00:01:06;49.67;;;24.00;;
59147;SDS011;44930;52.878;6.168;2022-12-04T00:03:34;48.15;;;24.38;;
59147;SDS011;44930;52.878;6.168;2022-12-04T00:06:04;46.38;;;24.63;;
59147;SDS011;44930;52.878;6.168;2022-12-04T00:08:31;47.88;;;22.58;;
59147;SDS011;44930;52.878;6.168;2022-12-04T00:10:56;45.60;;;21.83;;
59147;SDS011;44930;52.878;6.168;2022-12-04T00:13:23;48.10;;;23.77;;
59147;SDS011;44930;52.878;6.168;2022-12-04T00:15:49;43.88;;;22.33;;
59147;SDS011;44930;52.878;6.168;2022-12-04T00:18:14;46.58;;;24.00;;
59147;SDS011;44930;52.878;6.168;2022-12-04T00:20:40;46.15;;;23.08;;
59147;SDS011;44930;52.878;6.168;2022-12-04T00:23:06;50.83;;;25.70;;
59147;SDS011;44930;52.878;6.168;2022-12-04T00:25:32;47.53;;;23.83;;
59147;SDS011;44930;52.878;6.168;2022-12-04T00:27:57;46.55;;;22.83;;
59147;SDS011;44930;52.878;6.168;2022-12-04T00:30:23;45.95;;;23.58;;
59147;SDS011;44930;52.878;6.168;2022-12-04T00:32:49;47.40;;;24.67;;
59147;SDS011;44930;52.878;6.168;2022-12-04T00:35:14;46.85;;;23.92;;
59147;SDS011;44930;52.878;6.168;2022-12-04T00:37:40;46.20;;;22.73;;
59147;SDS011;44930;52.878;6.168;2022-12-04T00:40:06;46.25;;;23.17;;
59147;SDS011;44930;52.878;6.168;2022-12-04T00:42:32;45.28;;;22.80;;
59147;SDS011;44930;52.878;6.168;2022-12-04T00:44:57;48.97;;;23.48;;
59147;SDS011;44930;52.878;6.168;2022-12-04T00:47:23;45.45;;;24.27;;
59147;SDS011;44930;52.878;6.168;2022-12-04T00:49:49;42.05;;;23.05;;
59147;SDS011;44930;52.878;6.168;2022-12-04T00:52:15;49.85;;;23.48;;
59147;SDS011;44930;52.878;6.168;2022-12-04T00:54:41;45.17;;;23.38;;
59147;SDS011;44930;52.878;6.168;2022-12-04T00:57:07;48.38;;;23.17;;
59147;SDS011;44930;52.878;6.168;2022-12-04T00:59:32;45.47;;;24.58;;
59147;SDS011;44930;52.878;6.168;2022-12-04T01:01:58;48.53;;;25.38;;
59147;SDS011;44930;52.878;6.168;2022-12-04T01:04:24;48.40;;;23.40;;
59147;SDS011;44930;52.878;6.168;2022-12-04T01:06:49;43.67;;;23.23;;
59147;SDS011;44930;52.878;6.168;2022-12-04T01:09:15;48.50;;;25.08;;
59147;SDS011;44930;52.878;6.168;2022-12-04T01:11:40;50.80;;;25.90;;
59147;SDS011;44930;52.878;6.168;2022-12-04T01:14:06;50.95;;;26.42;;
59147;SDS011;44930;52.878;6.168;2022-12-04T01:16:33;51.03;;;24.40;;
59147;SDS011;44930;52.878;6.168;2022-12-04T01:19:00;46.90;;;25.13;;
59147;SDS011;44930;52.878;6.168;2022-12-04T01:21:26;44.58;;;23.05;;
59147;SDS011;44930;52.878;6.168;2022-12-04T01:23:52;47.72;;;24.85;;
59147;SDS011;44930;52.878;6.168;2022-12-04T01:26:18;51.03;;;25.33;;
59147;SDS011;44930;52.878;6.168;2022-12-04T01:28:44;48.95;;;25.58;;
59147;SDS011;44930;52.878;6.168;2022-12-04T01:31:14;49.88;;;24.48;;
59147;SDS011;44930;52.878;6.168;2022-12-04T01:33:42;49.78;;;25.20;;
59147;SDS011;44930;52.878;6.168;2022-12-04T01:36:09;48.30;;;23.98;;
59147;SDS011;44930;52.878;6.168;2022-12-04T01:38:36;48.40;;;25.52;;
59147;SDS011;44930;52.878;6.168;2022-12-04T01:41:04;45.88;;;24.20;;
59147;SDS011;44930;52.878;6.168;2022-12-04T01:43:31;47.90;;;24.10;;
59147;SDS011;44930;52.878;6.168;2022-12-04T01:45:57;47.30;;;25.08;;
59147;SDS011;44930;52.878;6.168;2022-12-04T01:53:33;48.10;;;23.20;;
59147;SDS011;44930;52.878;6.168;2022-12-04T01:56:00;45.40;;;24.65;;
59147;SDS011;44930;52.878;6.168;2022-12-04T01:58:28;47.22;;;24.17;;
59147;SDS011;44930;52.878;6.168;2022-12-04T02:00:58;45.97;;;24.17;;
59147;SDS011;44930;52.878;6.168;2022-12-04T02:03:26;48.72;;;24.58;;
59147;SDS011;44930;52.878;6.168;2022-12-04T02:05:52;51.28;;;25.48;;
59147;SDS011;44930;52.878;6.168;2022-12-04T02:08:18;53.35;;;25.60;;
59147;SDS011;44930;52.878;6.168;2022-12-04T02:10:56;48.03;;;25.08;;
59147;SDS011;44930;52.878;6.168;2022-12-04T02:13:35;46.63;;;24.30;;
59147;SDS011;44930;52.878;6.168;2022-12-04T02:18:45;44.53;;;22.42;;
59147;SDS011;44930;52.878;6.168;2022-12-04T02:21:35;52.78;;;25.27;;
59147;SDS011;44930;52.878;6.168;2022-12-04T02:27:07;48.78;;;23.15;;
59147;SDS011;44930;52.878;6.168;2022-12-04T02:29:56;52.15;;;26.27;;
59147;SDS011;44930;52.878;6.168;2022-12-04T02:32:27;48.75;;;24.98;;
59147;SDS011;44930;52.878;6.168;2022-12-04T02:35:00;53.75;;;25.58;;
59147;SDS011;44930;52.878;6.168;2022-12-04T02:37:39;57.88;;;25.80;;
59147;SDS011;44930;52.878;6.168;2022-12-04T02:40:19;48.92;;;25.17;;
59147;SDS011;44930;52.878;6.168;2022-12-04T02:42:52;48.78;;;24.58;;
59147;SDS011;44930;52.878;6.168;2022-12-04T02:45:20;48.05;;;24.63;;
59147;SDS011;44930;52.878;6.168;2022-12-04T02:47:51;49.13;;;25.02;;
59147;SDS011;44930;52.878;6.168;2022-12-04T02:50:19;49.33;;;24.85;;
59147;SDS011;44930;52.878;6.168;2022-12-04T02:52:49;44.30;;;24.45;;
59147;SDS011;44930;52.878;6.168;2022-12-04T02:55:18;54.30;;;25.67;;
59147;SDS011;44930;52.878;6.168;2022-12-04T02:57:48;49.20;;;25.48;;
59147;SDS011;44930;52.878;6.168;2022-12-04T03:00:17;49.25;;;25.80;;
59147;SDS011;44930;52.878;6.168;2022-12-04T03:03:00;47.58;;;25.88;;
59147;SDS011;44930;52.878;6.168;2022-12-04T03:05:42;47.95;;;24.63;;
59147;SDS011;44930;52.878;6.168;2022-12-04T03:08:16;48.00;;;24.58;;
59147;SDS011;44930;52.878;6.168;2022-12-04T03:10:47;53.15;;;26.42;;
59147;SDS011;44930;52.878;6.168;2022-12-04T03:13:25;51.47;;;25.88;;
59147;SDS011;44930;52.878;6.168;2022-12-04T03:15:52;48.50;;;25.17;;
59147;SDS011;44930;52.878;6.168;2022-12-04T03:18:53;50.70;;;25.75;;
59147;SDS011;44930;52.878;6.168;2022-12-04T03:21:41;50.05;;;25.27;;
59147;SDS011;44930;52.878;6.168;2022-12-04T03:30:18;51.15;;;25.35;;
59147;SDS011;44930;52.878;6.168;2022-12-04T03:32:50;51.47;;;26.17;;
59147;SDS011;44930;52.878;6.168;2022-12-04T03:35:23;57.05;;;26.17;;
59147;SDS011;44930;52.878;6.168;2022-12-04T03:45:46;55.72;;;27.02;;
59147;SDS011;44930;52.878;6.168;2022-12-04T03:53:28;57.97;;;28.02;;
59147;SDS011;44930;52.878;6.168;2022-12-04T03:58:46;51.13;;;26.13;;
59147;SDS011;44930;52.878;6.168;2022-12-04T04:01:16;53.75;;;25.90;;
59147;SDS011;44930;52.878;6.168;2022-12-04T04:03:48;55.90;;;26.65;;
59147;SDS011;44930;52.878;6.168;2022-12-04T04:06:30;56.95;;;27.20;;
59147;SDS011;44930;52.878;6.168;2022-12-04T04:09:03;55.33;;;26.33;;
59147;SDS011;44930;52.878;6.168;2022-12-04T04:11:37;54.45;;;27.83;;
59147;SDS011;44930;52.878;6.168;2022-12-04T04:14:11;54.40;;;27.90;;
59147;SDS011;44930;52.878;6.168;2022-12-04T04:16:59;55.72;;;28.45;;
59147;SDS011;44930;52.878;6.168;2022-12-04T04:19:49;53.50;;;26.42;;
59147;SDS011;44930;52.878;6.168;2022-12-04T04:22:39;52.38;;;26.85;;
59147;SDS011;44930;52.878;6.168;2022-12-04T04:25:23;50.78;;;27.05;;
59147;SDS011;44930;52.878;6.168;2022-12-04T04:27:52;50.15;;;27.05;;
59147;SDS011;44930;52.878;6.168;2022-12-04T04:30:19;56.88;;;28.30;;
59147;SDS011;44930;52.878;6.168;2022-12-04T04:32:48;54.83;;;28.00;;
59147;SDS011;44930;52.878;6.168;2022-12-04T04:38:01;59.10;;;28.75;;
59147;SDS011;44930;52.878;6.168;2022-12-04T04:46:11;50.83;;;27.20;;
59147;SDS011;44930;52.878;6.168;2022-12-04T04:48:43;53.60;;;28.02;;
59147;SDS011;44930;52.878;6.168;2022-12-04T04:51:12;51.78;;;28.00;;
59147;SDS011;44930;52.878;6.168;2022-12-04T04:53:41;54.75;;;29.48;;
59147;SDS011;44930;52.878;6.168;2022-12-04T04:56:08;55.70;;;28.20;;
59147;SDS011;44930;52.878;6.168;2022-12-04T04:58:34;56.67;;;29.05;;
59147;SDS011;44930;52.878;6.168;2022-12-04T05:01:04;54.20;;;27.90;;
59147;SDS011;44930;52.878;6.168;2022-12-04T05:03:35;51.85;;;28.02;;
59147;SDS011;44930;52.878;6.168;2022-12-04T05:06:01;52.15;;;29.23;;
59147;SDS011;44930;52.878;6.168;2022-12-04T05:08:26;59.65;;;29.40;;
59147;SDS011;44930;52.878;6.168;2022-12-04T05:10:52;54.70;;;29.42;;
59147;SDS011;44930;52.878;6.168;2022-12-04T05:13:19;61.47;;;30.92;;
59147;SDS011;44930;52.878;6.168;2022-12-04T05:15:54;57.35;;;29.65;;
59147;SDS011;44930;52.878;6.168;2022-12-04T05:18:21;59.80;;;29.73;;
59147;SDS011;44930;52.878;6.168;2022-12-04T05:20:46;55.25;;;28.10;;
59147;SDS011;44930;52.878;6.168;2022-12-04T05:23:12;58.75;;;29.67;;
59147;SDS011;44930;52.878;6.168;2022-12-04T05:25:37;53.83;;;27.67;;
59147;SDS011;44930;52.878;6.168;2022-12-04T05:28:03;56.78;;;28.67;;
59147;SDS011;44930;52.878;6.168;2022-12-04T05:30:29;60.17;;;29.17;;
59147;SDS011;44930;52.878;6.168;2022-12-04T05:32:55;60.10;;;30.17;;
59147;SDS011;44930;52.878;6.168;2022-12-04T05:35:21;60.60;;;30.67;;
59147;SDS011;44930;52.878;6.168;2022-12-04T05:37:47;57.05;;;28.83;;
59147;SDS011;44930;52.878;6.168;2022-12-04T05:40:13;57.50;;;29.17;;
59147;SDS011;44930;52.878;6.168;2022-12-04T05:42:39;57.42;;;27.63;;
59147;SDS011;44930;52.878;6.168;2022-12-04T05:45:04;58.15;;;28.77;;
59147;SDS011;44930;52.878;6.168;2022-12-04T05:47:30;55.70;;;27.55;;
59147;SDS011;44930;52.878;6.168;2022-12-04T05:49:56;60.58;;;27.63;;
59147;SDS011;44930;52.878;6.168;2022-12-04T05:52:22;51.20;;;27.77;;
59147;SDS011;44930;52.878;6.168;2022-12-04T05:54:47;52.95;;;28.58;;
59147;SDS011;44930;52.878;6.168;2022-12-04T05:57:13;55.58;;;28.50;;
59147;SDS011;44930;52.878;6.168;2022-12-04T05:59:39;56.67;;;29.52;;
59147;SDS011;44930;52.878;6.168;2022-12-04T06:02:04;57.58;;;28.33;;
59147;SDS011;44930;52.878;6.168;2022-12-04T06:04:30;48.45;;;26.75;;
59147;SDS011;44930;52.878;6.168;2022-12-04T06:06:56;55.95;;;29.33;;
59147;SDS011;44930;52.878;6.168;2022-12-04T06:09:21;54.00;;;26.85;;
59147;SDS011;44930;52.878;6.168;2022-12-04T06:11:47;53.97;;;28.90;;
59147;SDS011;44930;52.878;6.168;2022-12-04T06:14:14;52.25;;;28.58;;
59147;SDS011;44930;52.878;6.168;2022-12-04T06:16:41;55.50;;;27.85;;
59147;SDS011;44930;52.878;6.168;2022-12-04T06:19:10;55.58;;;29.13;;
59147;SDS011;44930;52.878;6.168;2022-12-04T06:21:39;56.45;;;28.67;;
59147;SDS011;44930;52.878;6.168;2022-12-04T06:24:06;53.63;;;27.95;;
59147;SDS011;44930;52.878;6.168;2022-12-04T06:26:32;53.00;;;27.63;;
59147;SDS011;44930;52.878;6.168;2022-12-04T06:28:59;56.53;;;28.50;;
59147;SDS011;44930;52.878;6.168;2022-12-04T06:31:26;52.58;;;27.48;;
59147;SDS011;44930;52.878;6.168;2022-12-04T06:33:54;50.63;;;27.08;;
59147;SDS011;44930;52.878;6.168;2022-12-04T06:36:21;55.50;;;28.55;;
59147;SDS011;44930;52.878;6.168;2022-12-04T06:38:47;49.58;;;26.88;;
59147;SDS011;44930;52.878;6.168;2022-12-04T06:41:15;54.00;;;26.95;;
59147;SDS011;44930;52.878;6.168;2022-12-04T06:43:42;55.67;;;29.63;;
59147;SDS011;44930;52.878;6.168;2022-12-04T06:46:09;53.45;;;28.48;;
59147;SDS011;44930;52.878;6.168;2022-12-04T06:48:37;52.05;;;26.33;;
59147;SDS011;44930;52.878;6.168;2022-12-04T06:51:04;53.65;;;28.05;;
59147;SDS011;44930;52.878;6.168;2022-12-04T06:53:31;56.17;;;27.35;;
59147;SDS011;44930;52.878;6.168;2022-12-04T06:56:02;58.13;;;27.73;;
59147;SDS011;44930;52.878;6.168;2022-12-04T06:58:29;51.13;;;25.80;;
59147;SDS011;44930;52.878;6.168;2022-12-04T07:00:56;53.20;;;27.58;;
59147;SDS011;44930;52.878;6.168;2022-12-04T07:03:22;53.55;;;25.83;;
59147;SDS011;44930;52.878;6.168;2022-12-04T07:05:49;51.70;;;25.88;;
59147;SDS011;44930;52.878;6.168;2022-12-04T07:08:14;48.60;;;25.77;;
59147;SDS011;44930;52.878;6.168;2022-12-04T07:10:41;47.30;;;24.83;;
59147;SDS011;44930;52.878;6.168;2022-12-04T07:13:07;52.15;;;26.48;;
59147;SDS011;44930;52.878;6.168;2022-12-04T07:15:33;54.38;;;27.75;;
59147;SDS011;44930;52.878;6.168;2022-12-04T07:18:00;51.90;;;26.30;;
59147;SDS011;44930;52.878;6.168;2022-12-04T07:20:26;48.50;;;26.85;;
59147;SDS011;44930;52.878;6.168;2022-12-04T07:22:52;50.60;;;26.38;;
59147;SDS011;44930;52.878;6.168;2022-12-04T07:25:17;50.40;;;26.17;;
59147;SDS011;44930;52.878;6.168;2022-12-04T07:27:44;48.90;;;24.88;;
59147;SDS011;44930;52.878;6.168;2022-12-04T07:30:10;46.83;;;25.27;;
59147;SDS011;44930;52.878;6.168;2022-12-04T07:32:36;51.97;;;25.95;;
59147;SDS011;44930;52.878;6.168;2022-12-04T07:35:02;51.00;;;25.90;;
59147;SDS011;44930;52.878;6.168;2022-12-04T07:37:28;55.85;;;27.15;;
59147;SDS011;44930;52.878;6.168;2022-12-04T07:39:53;50.65;;;26.35;;
59147;SDS011;44930;52.878;6.168;2022-12-04T07:42:19;49.75;;;25.92;;
59147;SDS011;44930;52.878;6.168;2022-12-04T07:44:45;53.00;;;27.17;;
59147;SDS011;44930;52.878;6.168;2022-12-04T07:47:11;52.47;;;26.35;;
59147;SDS011;44930;52.878;6.168;2022-12-04T07:49:37;53.28;;;26.35;;
59147;SDS011;44930;52.878;6.168;2022-12-04T07:52:02;49.55;;;25.65;;
59147;SDS011;44930;52.878;6.168;2022-12-04T07:54:28;51.45;;;26.35;;
59147;SDS011;44930;52.878;6.168;2022-12-04T07:56:54;53.17;;;26.75;;
59147;SDS011;44930;52.878;6.168;2022-12-04T07:59:20;54.83;;;26.65;;
59147;SDS011;44930;52.878;6.168;2022-12-04T08:01:46;52.95;;;26.85;;
59147;SDS011;44930;52.878;6.168;2022-12-04T08:04:12;56.60;;;28.75;;
59147;SDS011;44930;52.878;6.168;2022-12-04T08:06:38;53.92;;;26.00;;
59147;SDS011;44930;52.878;6.168;2022-12-04T08:09:04;55.38;;;27.88;;
59147;SDS011;44930;52.878;6.168;2022-12-04T08:11:31;53.25;;;26.88;;
59147;SDS011;44930;52.878;6.168;2022-12-04T08:13:57;55.85;;;27.67;;
59147;SDS011;44930;52.878;6.168;2022-12-04T08:16:26;55.33;;;27.70;;
59147;SDS011;44930;52.878;6.168;2022-12-04T08:18:52;55.45;;;26.83;;
59147;SDS011;44930;52.878;6.168;2022-12-04T08:21:19;50.75;;;26.90;;
59147;SDS011;44930;52.878;6.168;2022-12-04T08:23:47;55.95;;;27.45;;
59147;SDS011;44930;52.878;6.168;2022-12-04T08:26:15;56.45;;;26.15;;
59147;SDS011;44930;52.878;6.168;2022-12-04T08:28:42;48.53;;;26.38;;
59147;SDS011;44930;52.878;6.168;2022-12-04T08:31:12;49.63;;;25.60;;
59147;SDS011;44930;52.878;6.168;2022-12-04T08:33:43;53.88;;;26.98;;
59147;SDS011;44930;52.878;6.168;2022-12-04T08:36:11;53.90;;;28.52;;
59147;SDS011;44930;52.878;6.168;2022-12-04T08:38:39;55.63;;;28.17;;
59147;SDS011;44930;52.878;6.168;2022-12-04T08:41:05;55.20;;;28.05;;
59147;SDS011;44930;52.878;6.168;2022-12-04T08:43:32;54.78;;;28.30;;
59147;SDS011;44930;52.878;6.168;2022-12-04T08:45:59;52.85;;;26.60;;
59147;SDS011;44930;52.878;6.168;2022-12-04T08:48:29;57.90;;;28.40;;
59147;SDS011;44930;52.878;6.168;2022-12-04T08:50:56;57.28;;;28.35;;
59147;SDS011;44930;52.878;6.168;2022-12-04T08:53:21;56.13;;;27.73;;
59147;SDS011;44930;52.878;6.168;2022-12-04T08:55:47;58.30;;;30.85;;
59147;SDS011;44930;52.878;6.168;2022-12-04T08:58:13;52.88;;;26.50;;
59147;SDS011;44930;52.878;6.168;2022-12-04T09:00:39;57.85;;;27.95;;
59147;SDS011;44930;52.878;6.168;2022-12-04T09:03:05;53.42;;;27.42;;
59147;SDS011;44930;52.878;6.168;2022-12-04T09:05:31;62.53;;;28.67;;
59147;SDS011;44930;52.878;6.168;2022-12-04T09:07:57;57.60;;;27.88;;
59147;SDS011;44930;52.878;6.168;2022-12-04T09:10:23;54.85;;;26.80;;
59147;SDS011;44930;52.878;6.168;2022-12-04T09:12:49;55.92;;;26.98;;
59147;SDS011;44930;52.878;6.168;2022-12-04T09:15:14;54.05;;;28.25;;
59147;SDS011;44930;52.878;6.168;2022-12-04T09:17:40;53.90;;;27.20;;
59147;SDS011;44930;52.878;6.168;2022-12-04T09:20:06;52.60;;;25.92;;
59147;SDS011;44930;52.878;6.168;2022-12-04T09:22:33;59.97;;;26.20;;
59147;SDS011;44930;52.878;6.168;2022-12-04T09:24:59;56.05;;;28.20;;
59147;SDS011;44930;52.878;6.168;2022-12-04T09:27:25;59.78;;;28.88;;
59147;SDS011;44930;52.878;6.168;2022-12-04T09:29:51;53.42;;;28.63;;
59147;SDS011;44930;52.878;6.168;2022-12-04T09:32:17;55.00;;;28.13;;
59147;SDS011;44930;52.878;6.168;2022-12-04T09:34:42;53.38;;;27.75;;
59147;SDS011;44930;52.878;6.168;2022-12-04T09:37:08;54.60;;;28.00;;
59147;SDS011;44930;52.878;6.168;2022-12-04T09:39:34;57.15;;;27.05;;
59147;SDS011;44930;52.878;6.168;2022-12-04T09:44:32;53.88;;;28.25;;
59147;SDS011;44930;52.878;6.168;2022-12-04T09:47:13;55.17;;;27.13;;
59147;SDS011;44930;52.878;6.168;2022-12-04T09:49:53;59.83;;;27.60;;
59147;SDS011;44930;52.878;6.168;2022-12-04T09:52:38;53.22;;;27.77;;
59147;SDS011;44930;52.878;6.168;2022-12-04T09:55:28;57.97;;;28.45;;
59147;SDS011;44930;52.878;6.168;2022-12-04T09:58:01;60.05;;;29.50;;
59147;SDS011;44930;52.878;6.168;2022-12-04T10:00:29;53.92;;;27.13;;
59147;SDS011;44930;52.878;6.168;2022-12-04T10:02:59;57.08;;;28.83;;
59147;SDS011;44930;52.878;6.168;2022-12-04T10:05:36;59.45;;;28.33;;
59147;SDS011;44930;52.878;6.168;2022-12-04T10:08:23;55.35;;;26.00;;
59147;SDS011;44930;52.878;6.168;2022-12-04T10:16:38;54.17;;;27.35;;
59147;SDS011;44930;52.878;6.168;2022-12-04T10:22:02;52.95;;;27.52;;
59147;SDS011;44930;52.878;6.168;2022-12-04T10:24:53;59.70;;;28.42;;
59147;SDS011;44930;52.878;6.168;2022-12-04T10:27:26;54.83;;;27.85;;
59147;SDS011;44930;52.878;6.168;2022-12-04T10:32:44;52.58;;;27.92;;
59147;SDS011;44930;52.878;6.168;2022-12-04T10:35:21;54.63;;;27.42;;
59147;SDS011;44930;52.878;6.168;2022-12-04T10:38:02;52.60;;;26.27;;
59147;SDS011;44930;52.878;6.168;2022-12-04T10:40:34;54.53;;;28.63;;
59147;SDS011;44930;52.878;6.168;2022-12-04T10:45:28;55.42;;;28.25;;
59147;SDS011;44930;52.878;6.168;2022-12-04T10:47:54;51.67;;;26.98;;
59147;SDS011;44930;52.878;6.168;2022-12-04T10:50:21;49.03;;;26.08;;
59147;SDS011;44930;52.878;6.168;2022-12-04T10:52:48;51.40;;;25.35;;
59147;SDS011;44930;52.878;6.168;2022-12-04T10:55:14;50.90;;;27.30;;
59147;SDS011;44930;52.878;6.168;2022-12-04T10:57:41;49.35;;;26.23;;
59147;SDS011;44930;52.878;6.168;2022-12-04T11:02:53;46.78;;;24.45;;
59147;SDS011;44930;52.878;6.168;2022-12-04T11:05:31;47.55;;;25.25;;
59147;SDS011;44930;52.878;6.168;2022-12-04T11:08:02;48.17;;;24.98;;
59147;SDS011;44930;52.878;6.168;2022-12-04T11:12:59;42.63;;;22.67;;
59147;SDS011;44930;52.878;6.168;2022-12-04T11:15:35;41.58;;;21.98;;
59147;SDS011;44930;52.878;6.168;2022-12-04T11:18:08;42.85;;;23.90;;
59147;SDS011;44930;52.878;6.168;2022-12-04T11:20:40;45.25;;;23.02;;
59147;SDS011;44930;52.878;6.168;2022-12-04T11:23:13;37.88;;;21.27;;
59147;SDS011;44930;52.878;6.168;2022-12-04T11:25:44;42.75;;;22.40;;
59147;SDS011;44930;52.878;6.168;2022-12-04T11:28:15;40.03;;;20.65;;
59147;SDS011;44930;52.878;6.168;2022-12-04T11:30:45;44.58;;;23.27;;
59147;SDS011;44930;52.878;6.168;2022-12-04T11:33:15;42.95;;;21.85;;
59147;SDS011;44930;52.878;6.168;2022-12-04T11:35:41;39.83;;;22.38;;
59147;SDS011;44930;52.878;6.168;2022-12-04T11:38:14;37.95;;;21.20;;
59147;SDS011;44930;52.878;6.168;2022-12-04T11:40:45;38.13;;;21.35;;
59147;SDS011;44930;52.878;6.168;2022-12-04T11:43:12;38.22;;;21.88;;
59147;SDS011;44930;52.878;6.168;2022-12-04T11:45:39;36.78;;;20.10;;
59147;SDS011;44930;52.878;6.168;2022-12-04T11:48:16;40.00;;;20.45;;
59147;SDS011;44930;52.878;6.168;2022-12-04T11:53:40;39.22;;;21.08;;
59147;SDS011;44930;52.878;6.168;2022-12-04T12:01:56;32.65;;;18.80;;
59147;SDS011;44930;52.878;6.168;2022-12-04T12:07:59;34.45;;;17.85;;
59147;SDS011;44930;52.878;6.168;2022-12-04T12:10:35;33.75;;;18.55;;
59147;SDS011;44930;52.878;6.168;2022-12-04T12:13:28;29.75;;;15.45;;
59147;SDS011;44930;52.878;6.168;2022-12-04T12:26:59;20.70;;;12.13;;
59147;SDS011;44930;52.878;6.168;2022-12-04T12:32:25;23.92;;;14.02;;
59147;SDS011;44930;52.878;6.168;2022-12-04T12:34:52;25.45;;;13.75;;
59147;SDS011;44930;52.878;6.168;2022-12-04T12:37:52;25.50;;;14.82;;
59147;SDS011;44930;52.878;6.168;2022-12-04T12:40:14;23.38;;;14.40;;
59147;SDS011;44930;52.878;6.168;2022-12-04T12:42:49;25.65;;;15.93;;
59147;SDS011;44930;52.878;6.168;2022-12-04T12:47:58;28.20;;;14.60;;
59147;SDS011;44930;52.878;6.168;2022-12-04T12:50:44;26.13;;;15.68;;
59147;SDS011;44930;52.878;6.168;2022-12-04T12:53:17;27.25;;;15.15;;
59147;SDS011;44930;52.878;6.168;2022-12-04T12:55:51;25.48;;;13.75;;
59147;SDS011;44930;52.878;6.168;2022-12-04T13:00:53;24.73;;;14.55;;
59147;SDS011;44930;52.878;6.168;2022-12-04T13:06:08;29.98;;;15.38;;
59147;SDS011;44930;52.878;6.168;2022-12-04T13:11:15;26.95;;;14.88;;
59147;SDS011;44930;52.878;6.168;2022-12-04T13:13:44;28.98;;;16.27;;
59147;SDS011;44930;52.878;6.168;2022-12-04T13:16:14;27.92;;;14.80;;
59147;SDS011;44930;52.878;6.168;2022-12-04T13:21:32;26.85;;;15.98;;
59147;SDS011;44930;52.878;6.168;2022-12-04T13:26:53;28.88;;;14.93;;
59147;SDS011;44930;52.878;6.168;2022-12-04T13:29:41;25.92;;;13.52;;
59147;SDS011;44930;52.878;6.168;2022-12-04T13:40:53;27.75;;;14.88;;
59147;SDS011;44930;52.878;6.168;2022-12-04T13:51:47;28.77;;;15.70;;
59147;SDS011;44930;52.878;6.168;2022-12-04T13:56:40;27.42;;;15.55;;
59147;SDS011;44930;52.878;6.168;2022-12-04T13:59:32;26.83;;;14.68;;
59147;SDS011;44930;52.878;6.168;2022-12-04T14:02:01;27.70;;;15.90;;
59147;SDS011;44930;52.878;6.168;2022-12-04T14:07:01;27.50;;;15.50;;
59147;SDS011;44930;52.878;6.168;2022-12-04T14:09:29;26.35;;;15.43;;
59147;SDS011;44930;52.878;6.168;2022-12-04T14:11:58;29.42;;;17.30;;
59147;SDS011;44930;52.878;6.168;2022-12-04T14:14:27;28.85;;;16.60;;
59147;SDS011;44930;52.878;6.168;2022-12-04T14:17:37;29.45;;;14.57;;
59147;SDS011;44930;52.878;6.168;2022-12-04T14:20:03;28.65;;;15.48;;
59147;SDS011;44930;52.878;6.168;2022-12-04T14:22:46;29.73;;;16.40;;
59147;SDS011;44930;52.878;6.168;2022-12-04T14:30:25;28.38;;;15.93;;
59147;SDS011;44930;52.878;6.168;2022-12-04T14:33:07;27.50;;;15.52;;
59147;SDS011;44930;52.878;6.168;2022-12-04T14:35:34;28.05;;;15.80;;
59147;SDS011;44930;52.878;6.168;2022-12-04T14:38:10;28.80;;;16.33;;
59147;SDS011;44930;52.878;6.168;2022-12-04T14:40:43;28.98;;;15.57;;
59147;SDS011;44930;52.878;6.168;2022-12-04T14:43:22;27.75;;;15.18;;
59147;SDS011;44930;52.878;6.168;2022-12-04T14:48:48;27.90;;;15.20;;
59147;SDS011;44930;52.878;6.168;2022-12-04T14:51:40;28.75;;;16.02;;
59147;SDS011;44930;52.878;6.168;2022-12-04T14:59:20;28.45;;;15.55;;
59147;SDS011;44930;52.878;6.168;2022-12-04T15:01:48;29.25;;;16.23;;
59147;SDS011;44930;52.878;6.168;2022-12-04T15:04:21;29.95;;;15.45;;
59147;SDS011;44930;52.878;6.168;2022-12-04T15:06:53;26.90;;;15.25;;
59147;SDS011;44930;52.878;6.168;2022-12-04T15:09:20;29.35;;;15.13;;
59147;SDS011;44930;52.878;6.168;2022-12-04T15:12:15;23.83;;;14.63;;
59147;SDS011;44930;52.878;6.168;2022-12-04T15:15:12;26.13;;;16.08;;
59147;SDS011;44930;52.878;6.168;2022-12-04T15:17:58;27.48;;;14.45;;
59147;SDS011;44930;52.878;6.168;2022-12-04T15:20:36;27.83;;;14.90;;
59147;SDS011;44930;52.878;6.168;2022-12-04T15:23:07;29.85;;;16.77;;
59147;SDS011;44930;52.878;6.168;2022-12-04T15:25:42;26.13;;;15.20;;
59147;SDS011;44930;52.878;6.168;2022-12-04T15:28:19;27.05;;;16.08;;
59147;SDS011;44930;52.878;6.168;2022-12-04T15:31:09;26.85;;;14.68;;
59147;SDS011;44930;52.878;6.168;2022-12-04T15:33:37;31.33;;;16.55;;
59147;SDS011;44930;52.878;6.168;2022-12-04T15:36:15;28.30;;;16.23;;
59147;SDS011;44930;52.878;6.168;2022-12-04T15:38:47;27.83;;;14.82;;
59147;SDS011;44930;52.878;6.168;2022-12-04T15:41:30;27.60;;;15.57;;
59147;SDS011;44930;52.878;6.168;2022-12-04T15:43:57;30.42;;;17.20;;
59147;SDS011;44930;52.878;6.168;2022-12-04T15:46:33;28.30;;;16.55;;
59147;SDS011;44930;52.878;6.168;2022-12-04T15:49:17;29.17;;;15.07;;
59147;SDS011;44930;52.878;6.168;2022-12-04T15:51:44;30.40;;;16.45;;
59147;SDS011;44930;52.878;6.168;2022-12-04T15:54:23;31.67;;;17.15;;
59147;SDS011;44930;52.878;6.168;2022-12-04T15:59:47;30.47;;;17.20;;
59147;SDS011;44930;52.878;6.168;2022-12-04T16:02:24;29.05;;;16.52;;
59147;SDS011;44930;52.878;6.168;2022-12-04T16:04:53;32.35;;;17.98;;
59147;SDS011;44930;52.878;6.168;2022-12-04T16:07:24;33.53;;;19.10;;
59147;SDS011;44930;52.878;6.168;2022-12-04T16:09:55;29.55;;;17.70;;
59147;SDS011;44930;52.878;6.168;2022-12-04T16:12:24;30.38;;;16.95;;
59147;SDS011;44930;52.878;6.168;2022-12-04T16:14:52;32.63;;;17.65;;
59147;SDS011;44930;52.878;6.168;2022-12-04T16:17:30;29.40;;;16.23;;
59147;SDS011;44930;52.878;6.168;2022-12-04T16:22:23;32.67;;;17.25;;
59147;SDS011;44930;52.878;6.168;2022-12-04T16:24:50;31.58;;;17.27;;
59147;SDS011;44930;52.878;6.168;2022-12-04T16:27:18;34.72;;;18.13;;
59147;SDS011;44930;52.878;6.168;2022-12-04T16:29:46;32.85;;;17.60;;
59147;SDS011;44930;52.878;6.168;2022-12-04T16:32:17;29.52;;;16.17;;
59147;SDS011;44930;52.878;6.168;2022-12-04T16:34:44;28.27;;;16.00;;
59147;SDS011;44930;52.878;6.168;2022-12-04T16:37:15;28.75;;;16.88;;
59147;SDS011;44930;52.878;6.168;2022-12-04T16:39:45;33.22;;;18.05;;
59147;SDS011;44930;52.878;6.168;2022-12-04T16:42:22;29.85;;;16.38;;
59147;SDS011;44930;52.878;6.168;2022-12-04T16:44:52;26.52;;;15.43;;
59147;SDS011;44930;52.878;6.168;2022-12-04T16:47:19;34.53;;;18.88;;
59147;SDS011;44930;52.878;6.168;2022-12-04T16:49:47;26.63;;;14.57;;
59147;SDS011;44930;52.878;6.168;2022-12-04T16:52:14;31.95;;;17.38;;
59147;SDS011;44930;52.878;6.168;2022-12-04T16:54:40;28.10;;;16.20;;
59147;SDS011;44930;52.878;6.168;2022-12-04T16:57:06;31.83;;;15.93;;
59147;SDS011;44930;52.878;6.168;2022-12-04T16:59:32;25.85;;;14.40;;
59147;SDS011;44930;52.878;6.168;2022-12-04T17:01:59;27.42;;;15.77;;
59147;SDS011;44930;52.878;6.168;2022-12-04T17:04:25;29.73;;;16.42;;